sensor_id;sensor_type;location;lat;lon;timestamp;temperature;humidity
30288;DHT22;17103;48.316;11.558;2023-06-14T00:00:51;22.90;26.00
30288;DHT22;17103;48.316;11.558;2023-06-14T00:03:18;23.00;26.20
30288;DHT22;17103;48.316;11.558;2023-06-14T00:05:47;22.90;26.10
30288;DHT22;17103;48.316;11.558;2023-06-14T00:08:14;22.90;26.10
30288;DHT22;17103;48.316;11.558;2023-06-14T00:10:40;22.90;26.20
30288;DHT22;17103;48.316;11.558;2023-06-14T00:13:07;22.80;26.10
30288;DHT22;17103;48.316;11.558;2023-06-14T00:15:33;22.80;26.20
30288;DHT22;17103;48.316;11.558;2023-06-14T00:17:59;22.80;26.30
30288;DHT22;17103;48.316;11.558;2023-06-14T00:20:30;22.80;26.30
30288;DHT22;17103;48.316;11.558;2023-06-14T00:22:59;22.80;26.40
30288;DHT22;17103;48.316;11.558;2023-06-14T00:25:25;22.80;26.30
30288;DHT22;17103;48.316;11.558;2023-06-14T00:27:51;22.70;26.20
30288;DHT22;17103;48.316;11.558;2023-06-14T00:30:16;22.70;26.40
30288;DHT22;17103;48.316;11.558;2023-06-14T00:32:43;22.60;26.50
30288;DHT22;17103;48.316;11.558;2023-06-14T00:35:09;22.60;26.50
30288;DHT22;17103;48.316;11.558;2023-06-14T00:37:35;22.70;26.60
30288;DHT22;17103;48.316;11.558;2023-06-14T00:40:01;22.50;26.50
30288;DHT22;17103;48.316;11.558;2023-06-14T00:42:28;22.50;26.70
30288;DHT22;17103;48.316;11.558;2023-06-14T00:44:54;22.50;26.80
30288;DHT22;17103;48.316;11.558;2023-06-14T00:47:19;22.50;26.80
30288;DHT22;17103;48.316;11.558;2023-06-14T00:49:47;22.50;26.80
30288;DHT22;17103;48.316;11.558;2023-06-14T00:52:13;22.40;26.90
30288;DHT22;17103;48.316;11.558;2023-06-14T00:54:40;22.40;26.90
30288;DHT22;17103;48.316;11.558;2023-06-14T00:57:10;22.30;26.90
30288;DHT22;17103;48.316;11.558;2023-06-14T00:59:47;22.30;27.00
30288;DHT22;17103;48.316;11.558;2023-06-14T01:02:13;22.30;27.20
30288;DHT22;17103;48.316;11.558;2023-06-14T01:04:44;22.30;27.10
30288;DHT22;17103;48.316;11.558;2023-06-14T01:12:55;22.10;27.00
30288;DHT22;17103;48.316;11.558;2023-06-14T01:15:23;22.10;27.10
30288;DHT22;17103;48.316;11.558;2023-06-14T01:17:50;22.10;27.20
30288;DHT22;17103;48.316;11.558;2023-06-14T01:20:17;22.00;27.20
30288;DHT22;17103;48.316;11.558;2023-06-14T01:22:52;22.00;27.20
30288;DHT22;17103;48.316;11.558;2023-06-14T01:25:19;22.00;27.50
30288;DHT22;17103;48.316;11.558;2023-06-14T01:27:58;22.00;27.40
30288;DHT22;17103;48.316;11.558;2023-06-14T01:30:24;21.80;27.50
30288;DHT22;17103;48.316;11.558;2023-06-14T01:32:52;21.90;27.50
30288;DHT22;17103;48.316;11.558;2023-06-14T01:35:18;21.90;28.30
30288;DHT22;17103;48.316;11.558;2023-06-14T01:37:47;21.90;28.10
30288;DHT22;17103;48.316;11.558;2023-06-14T01:40:15;21.80;28.40
30288;DHT22;17103;48.316;11.558;2023-06-14T01:42:41;21.80;28.50
30288;DHT22;17103;48.316;11.558;2023-06-14T01:45:09;21.60;29.00
30288;DHT22;17103;48.316;11.558;2023-06-14T01:47:35;21.70;28.80
30288;DHT22;17103;48.316;11.558;2023-06-14T01:50:02;21.60;28.80
30288;DHT22;17103;48.316;11.558;2023-06-14T01:52:28;21.70;29.00
30288;DHT22;17103;48.316;11.558;2023-06-14T01:54:53;21.60;29.00
30288;DHT22;17103;48.316;11.558;2023-06-14T01:57:19;21.50;29.10
30288;DHT22;17103;48.316;11.558;2023-06-14T01:59:45;21.50;29.10
30288;DHT22;17103;48.316;11.558;2023-06-14T02:02:14;21.40;29.00
30288;DHT22;17103;48.316;11.558;2023-06-14T02:04:40;21.40;29.00
30288;DHT22;17103;48.316;11.558;2023-06-14T02:07:06;21.40;29.10
30288;DHT22;17103;48.316;11.558;2023-06-14T02:09:31;21.30;29.10
30288;DHT22;17103;48.316;11.558;2023-06-14T02:11:57;21.30;29.10
30288;DHT22;17103;48.316;11.558;2023-06-14T02:14:24;21.30;29.20
30288;DHT22;17103;48.316;11.558;2023-06-14T02:16:49;21.20;29.40
30288;DHT22;17103;48.316;11.558;2023-06-14T02:19:16;21.20;29.40
30288;DHT22;17103;48.316;11.558;2023-06-14T02:21:42;21.20;29.60
30288;DHT22;17103;48.316;11.558;2023-06-14T02:24:08;21.10;29.50
30288;DHT22;17103;48.316;11.558;2023-06-14T02:26:34;21.10;29.50
30288;DHT22;17103;48.316;11.558;2023-06-14T02:28:59;21.10;29.50
30288;DHT22;17103;48.316;11.558;2023-06-14T02:31:25;21.00;29.90
30288;DHT22;17103;48.316;11.558;2023-06-14T02:33:51;21.00;29.60
30288;DHT22;17103;48.316;11.558;2023-06-14T02:36:17;21.00;29.70
30288;DHT22;17103;48.316;11.558;2023-06-14T02:38:42;21.00;29.60
30288;DHT22;17103;48.316;11.558;2023-06-14T02:41:08;21.00;29.70
30288;DHT22;17103;48.316;11.558;2023-06-14T02:43:33;21.00;29.70
30288;DHT22;17103;48.316;11.558;2023-06-14T02:45:59;20.90;29.60
30288;DHT22;17103;48.316;11.558;2023-06-14T02:48:25;20.90;29.60
30288;DHT22;17103;48.316;11.558;2023-06-14T02:50:50;20.80;29.60
30288;DHT22;17103;48.316;11.558;2023-06-14T02:53:16;20.90;29.60
30288;DHT22;17103;48.316;11.558;2023-06-14T02:55:42;20.80;29.60
30288;DHT22;17103;48.316;11.558;2023-06-14T02:58:08;20.80;29.60
30288;DHT22;17103;48.316;11.558;2023-06-14T03:00:33;20.70;29.60
30288;DHT22;17103;48.316;11.558;2023-06-14T03:03:00;20.70;29.60
30288;DHT22;17103;48.316;11.558;2023-06-14T03:05:27;20.70;29.60
30288;DHT22;17103;48.316;11.558;2023-06-14T03:07:53;20.70;29.60
30288;DHT22;17103;48.316;11.558;2023-06-14T03:10:19;20.70;29.60
30288;DHT22;17103;48.316;11.558;2023-06-14T03:12:46;20.70;29.70
30288;DHT22;17103;48.316;11.558;2023-06-14T03:15:12;20.60;29.60
30288;DHT22;17103;48.316;11.558;2023-06-14T03:17:42;20.70;29.60
30288;DHT22;17103;48.316;11.558;2023-06-14T03:20:11;20.70;29.70
30288;DHT22;17103;48.316;11.558;2023-06-14T03:22:37;20.60;29.70
30288;DHT22;17103;48.316;11.558;2023-06-14T03:25:03;20.60;29.70
30288;DHT22;17103;48.316;11.558;2023-06-14T03:27:30;20.60;29.80
30288;DHT22;17103;48.316;11.558;2023-06-14T03:29:56;20.60;29.80
30288;DHT22;17103;48.316;11.558;2023-06-14T03:32:21;20.50;29.80
30288;DHT22;17103;48.316;11.558;2023-06-14T03:34:47;20.50;29.80
30288;DHT22;17103;48.316;11.558;2023-06-14T03:37:12;20.50;29.80
30288;DHT22;17103;48.316;11.558;2023-06-14T03:39:38;20.50;29.90
30288;DHT22;17103;48.316;11.558;2023-06-14T03:42:12;20.50;29.90
30288;DHT22;17103;48.316;11.558;2023-06-14T03:44:37;20.50;30.00
30288;DHT22;17103;48.316;11.558;2023-06-14T03:47:04;20.50;30.00
30288;DHT22;17103;48.316;11.558;2023-06-14T03:49:29;20.50;30.10
30288;DHT22;17103;48.316;11.558;2023-06-14T03:51:55;20.50;30.10
30288;DHT22;17103;48.316;11.558;2023-06-14T03:54:21;20.50;30.20
30288;DHT22;17103;48.316;11.558;2023-06-14T03:56:47;20.40;30.10
30288;DHT22;17103;48.316;11.558;2023-06-14T03:59:12;20.40;30.10
30288;DHT22;17103;48.316;11.558;2023-06-14T04:01:38;20.40;30.20
30288;DHT22;17103;48.316;11.558;2023-06-14T04:04:11;20.30;30.20
30288;DHT22;17103;48.316;11.558;2023-06-14T04:06:37;20.40;30.40
30288;DHT22;17103;48.316;11.558;2023-06-14T04:09:02;20.40;30.50
30288;DHT22;17103;48.316;11.558;2023-06-14T04:11:28;20.40;30.40
30288;DHT22;17103;48.316;11.558;2023-06-14T04:13:54;20.30;30.40
30288;DHT22;17103;48.316;11.558;2023-06-14T04:16:21;20.40;30.50
30288;DHT22;17103;48.316;11.558;2023-06-14T04:18:47;20.40;30.50
30288;DHT22;17103;48.316;11.558;2023-06-14T04:21:13;20.40;30.50
30288;DHT22;17103;48.316;11.558;2023-06-14T04:23:39;20.40;30.60
30288;DHT22;17103;48.316;11.558;2023-06-14T04:26:09;20.40;30.60
30288;DHT22;17103;48.316;11.558;2023-06-14T04:28:36;20.30;30.60
30288;DHT22;17103;48.316;11.558;2023-06-14T04:31:06;20.40;30.60
30288;DHT22;17103;48.316;11.558;2023-06-14T04:33:37;20.40;30.60
30288;DHT22;17103;48.316;11.558;2023-06-14T04:36:11;20.40;30.70
30288;DHT22;17103;48.316;11.558;2023-06-14T04:38:42;20.50;30.70
30288;DHT22;17103;48.316;11.558;2023-06-14T04:41:10;20.40;30.70
30288;DHT22;17103;48.316;11.558;2023-06-14T04:43:37;20.50;30.80
30288;DHT22;17103;48.316;11.558;2023-06-14T04:46:06;20.60;30.90
30288;DHT22;17103;48.316;11.558;2023-06-14T04:48:40;20.60;31.10
30288;DHT22;17103;48.316;11.558;2023-06-14T04:51:08;20.60;31.00
30288;DHT22;17103;48.316;11.558;2023-06-14T04:53:34;20.60;31.10
30288;DHT22;17103;48.316;11.558;2023-06-14T04:56:00;20.70;31.20
30288;DHT22;17103;48.316;11.558;2023-06-14T04:58:27;20.70;31.20
30288;DHT22;17103;48.316;11.558;2023-06-14T05:00:54;20.60;31.20
30288;DHT22;17103;48.316;11.558;2023-06-14T05:03:21;20.80;31.40
30288;DHT22;17103;48.316;11.558;2023-06-14T05:05:47;20.80;31.40
30288;DHT22;17103;48.316;11.558;2023-06-14T05:08:14;20.90;31.40
30288;DHT22;17103;48.316;11.558;2023-06-14T05:10:39;20.90;31.40
30288;DHT22;17103;48.316;11.558;2023-06-14T05:13:05;20.90;31.40
30288;DHT22;17103;48.316;11.558;2023-06-14T05:15:30;21.00;31.40
30288;DHT22;17103;48.316;11.558;2023-06-14T05:17:56;20.90;31.40
30288;DHT22;17103;48.316;11.558;2023-06-14T05:20:23;21.10;31.50
30288;DHT22;17103;48.316;11.558;2023-06-14T05:22:53;21.10;31.60
30288;DHT22;17103;48.316;11.558;2023-06-14T05:25:22;21.10;31.60
30288;DHT22;17103;48.316;11.558;2023-06-14T05:27:48;21.20;31.90
30288;DHT22;17103;48.316;11.558;2023-06-14T05:30:14;21.20;31.60
30288;DHT22;17103;48.316;11.558;2023-06-14T05:32:41;21.20;31.60
30288;DHT22;17103;48.316;11.558;2023-06-14T05:35:07;21.30;31.50
30288;DHT22;17103;48.316;11.558;2023-06-14T05:37:32;21.30;31.40
30288;DHT22;17103;48.316;11.558;2023-06-14T05:39:58;21.40;31.40
30288;DHT22;17103;48.316;11.558;2023-06-14T05:42:23;21.40;31.40
30288;DHT22;17103;48.316;11.558;2023-06-14T05:44:49;21.40;31.30
30288;DHT22;17103;48.316;11.558;2023-06-14T05:47:15;21.50;31.50
30288;DHT22;17103;48.316;11.558;2023-06-14T05:49:40;21.50;31.50
30288;DHT22;17103;48.316;11.558;2023-06-14T05:52:06;21.60;31.60
30288;DHT22;17103;48.316;11.558;2023-06-14T05:54:32;21.50;31.50
30288;DHT22;17103;48.316;11.558;2023-06-14T05:56:58;21.60;31.40
30288;DHT22;17103;48.316;11.558;2023-06-14T05:59:27;21.60;31.50
30288;DHT22;17103;48.316;11.558;2023-06-14T06:01:55;21.60;31.60
30288;DHT22;17103;48.316;11.558;2023-06-14T06:04:21;21.70;31.60
30288;DHT22;17103;48.316;11.558;2023-06-14T06:06:46;21.70;31.50
30288;DHT22;17103;48.316;11.558;2023-06-14T06:09:13;21.80;31.60
30288;DHT22;17103;48.316;11.558;2023-06-14T06:11:41;21.80;31.60
30288;DHT22;17103;48.316;11.558;2023-06-14T06:14:07;21.80;31.60
30288;DHT22;17103;48.316;11.558;2023-06-14T06:16:33;21.90;31.40
30288;DHT22;17103;48.316;11.558;2023-06-14T06:18:59;21.90;31.30
30288;DHT22;17103;48.316;11.558;2023-06-14T06:21:25;21.90;31.40
30288;DHT22;17103;48.316;11.558;2023-06-14T06:23:51;22.00;31.40
30288;DHT22;17103;48.316;11.558;2023-06-14T06:26:18;22.00;31.10
30288;DHT22;17103;48.316;11.558;2023-06-14T06:28:43;22.00;31.10
30288;DHT22;17103;48.316;11.558;2023-06-14T06:31:09;22.10;31.20
30288;DHT22;17103;48.316;11.558;2023-06-14T06:33:36;22.10;31.20
30288;DHT22;17103;48.316;11.558;2023-06-14T06:36:02;22.20;31.10
30288;DHT22;17103;48.316;11.558;2023-06-14T06:38:28;22.20;31.10
30288;DHT22;17103;48.316;11.558;2023-06-14T06:40:54;22.30;31.00
30288;DHT22;17103;48.316;11.558;2023-06-14T06:43:19;22.30;31.00
30288;DHT22;17103;48.316;11.558;2023-06-14T06:45:45;22.30;30.90
30288;DHT22;17103;48.316;11.558;2023-06-14T06:48:11;22.40;31.00
30288;DHT22;17103;48.316;11.558;2023-06-14T06:50:36;22.40;31.00
30288;DHT22;17103;48.316;11.558;2023-06-14T06:53:02;22.40;30.90
30288;DHT22;17103;48.316;11.558;2023-06-14T06:55:28;22.50;30.90
30288;DHT22;17103;48.316;11.558;2023-06-14T06:57:53;22.50;31.00
30288;DHT22;17103;48.316;11.558;2023-06-14T07:00:21;22.50;30.80
30288;DHT22;17103;48.316;11.558;2023-06-14T07:02:47;22.50;30.90
30288;DHT22;17103;48.316;11.558;2023-06-14T07:05:13;22.60;31.10
30288;DHT22;17103;48.316;11.558;2023-06-14T07:07:39;22.60;31.10
30288;DHT22;17103;48.316;11.558;2023-06-14T07:10:05;22.60;31.10
30288;DHT22;17103;48.316;11.558;2023-06-14T07:12:31;22.60;31.10
30288;DHT22;17103;48.316;11.558;2023-06-14T07:14:59;22.70;31.20
30288;DHT22;17103;48.316;11.558;2023-06-14T07:17:26;22.70;31.00
30288;DHT22;17103;48.316;11.558;2023-06-14T07:19:51;22.80;31.20
30288;DHT22;17103;48.316;11.558;2023-06-14T07:22:19;22.80;31.20
30288;DHT22;17103;48.316;11.558;2023-06-14T07:24:45;22.80;31.10
30288;DHT22;17103;48.316;11.558;2023-06-14T07:27:11;22.90;31.00
30288;DHT22;17103;48.316;11.558;2023-06-14T07:29:38;23.00;31.20
30288;DHT22;17103;48.316;11.558;2023-06-14T07:32:04;23.00;31.00
30288;DHT22;17103;48.316;11.558;2023-06-14T07:34:30;23.10;31.10
30288;DHT22;17103;48.316;11.558;2023-06-14T07:36:56;23.10;31.20
30288;DHT22;17103;48.316;11.558;2023-06-14T07:39:21;23.20;31.20
30288;DHT22;17103;48.316;11.558;2023-06-14T07:41:47;23.30;31.20
30288;DHT22;17103;48.316;11.558;2023-06-14T07:44:13;23.30;31.20
30288;DHT22;17103;48.316;11.558;2023-06-14T07:46:38;23.30;31.10
30288;DHT22;17103;48.316;11.558;2023-06-14T07:49:04;23.40;31.00
30288;DHT22;17103;48.316;11.558;2023-06-14T07:51:30;23.40;31.00
30288;DHT22;17103;48.316;11.558;2023-06-14T07:53:56;23.50;31.00
30288;DHT22;17103;48.316;11.558;2023-06-14T07:56:21;23.50;30.70
30288;DHT22;17103;48.316;11.558;2023-06-14T07:58:48;23.60;30.80
30288;DHT22;17103;48.316;11.558;2023-06-14T08:01:14;23.60;30.80
30288;DHT22;17103;48.316;11.558;2023-06-14T08:03:40;23.70;30.90
30288;DHT22;17103;48.316;11.558;2023-06-14T08:06:06;23.70;30.60
30288;DHT22;17103;48.316;11.558;2023-06-14T08:08:32;23.80;30.70
30288;DHT22;17103;48.316;11.558;2023-06-14T08:10:58;23.80;30.80
30288;DHT22;17103;48.316;11.558;2023-06-14T08:13:23;23.90;30.80
30288;DHT22;17103;48.316;11.558;2023-06-14T08:15:49;23.90;30.70
30288;DHT22;17103;48.316;11.558;2023-06-14T08:18:15;24.00;30.80
30288;DHT22;17103;48.316;11.558;2023-06-14T08:20:40;24.10;30.60
30288;DHT22;17103;48.316;11.558;2023-06-14T08:23:06;24.00;30.50
30288;DHT22;17103;48.316;11.558;2023-06-14T08:25:33;24.10;30.40
30288;DHT22;17103;48.316;11.558;2023-06-14T08:27:59;24.20;30.50
30288;DHT22;17103;48.316;11.558;2023-06-14T08:30:25;24.20;30.40
30288;DHT22;17103;48.316;11.558;2023-06-14T08:32:51;24.30;30.40
30288;DHT22;17103;48.316;11.558;2023-06-14T08:35:17;24.30;30.30
30288;DHT22;17103;48.316;11.558;2023-06-14T08:37:43;24.40;30.40
30288;DHT22;17103;48.316;11.558;2023-06-14T08:40:18;24.50;30.40
30288;DHT22;17103;48.316;11.558;2023-06-14T08:42:52;24.50;30.10
30288;DHT22;17103;48.316;11.558;2023-06-14T08:45:19;24.50;30.20
30288;DHT22;17103;48.316;11.558;2023-06-14T08:47:47;24.50;30.00
30288;DHT22;17103;48.316;11.558;2023-06-14T08:50:20;24.60;30.00
30288;DHT22;17103;48.316;11.558;2023-06-14T08:52:48;24.60;29.90
30288;DHT22;17103;48.316;11.558;2023-06-14T08:55:18;24.60;29.90
30288;DHT22;17103;48.316;11.558;2023-06-14T08:57:46;24.70;29.90
30288;DHT22;17103;48.316;11.558;2023-06-14T09:00:13;24.70;29.90
30288;DHT22;17103;48.316;11.558;2023-06-14T09:02:40;24.70;30.00
30288;DHT22;17103;48.316;11.558;2023-06-14T09:05:12;24.80;30.00
30288;DHT22;17103;48.316;11.558;2023-06-14T09:07:41;24.80;30.00
30288;DHT22;17103;48.316;11.558;2023-06-14T09:10:16;24.80;29.90
30288;DHT22;17103;48.316;11.558;2023-06-14T09:12:42;24.90;29.90
30288;DHT22;17103;48.316;11.558;2023-06-14T09:15:09;25.00;29.90
30288;DHT22;17103;48.316;11.558;2023-06-14T09:17:36;25.00;29.90
30288;DHT22;17103;48.316;11.558;2023-06-14T09:20:06;25.00;29.90
30288;DHT22;17103;48.316;11.558;2023-06-14T09:22:33;25.10;29.90
30288;DHT22;17103;48.316;11.558;2023-06-14T09:24:59;25.20;30.00
30288;DHT22;17103;48.316;11.558;2023-06-14T09:27:26;25.30;29.90
30288;DHT22;17103;48.316;11.558;2023-06-14T09:29:52;25.30;29.80
30288;DHT22;17103;48.316;11.558;2023-06-14T09:32:18;25.40;29.70
30288;DHT22;17103;48.316;11.558;2023-06-14T09:34:45;25.50;29.70
30288;DHT22;17103;48.316;11.558;2023-06-14T09:37:11;25.60;29.70
30288;DHT22;17103;48.316;11.558;2023-06-14T09:39:49;25.60;29.60
30288;DHT22;17103;48.316;11.558;2023-06-14T09:42:19;25.70;29.50
30288;DHT22;17103;48.316;11.558;2023-06-14T09:44:48;25.80;29.30
30288;DHT22;17103;48.316;11.558;2023-06-14T09:47:17;25.80;29.00
30288;DHT22;17103;48.316;11.558;2023-06-14T09:49:43;25.90;28.90
30288;DHT22;17103;48.316;11.558;2023-06-14T09:52:19;26.00;29.00
30288;DHT22;17103;48.316;11.558;2023-06-14T09:54:46;26.00;28.90
30288;DHT22;17103;48.316;11.558;2023-06-14T09:57:17;26.10;29.10
30288;DHT22;17103;48.316;11.558;2023-06-14T09:59:46;26.20;29.10
30288;DHT22;17103;48.316;11.558;2023-06-14T10:02:26;26.10;28.90
30288;DHT22;17103;48.316;11.558;2023-06-14T10:05:06;26.20;28.90
30288;DHT22;17103;48.316;11.558;2023-06-14T10:07:53;26.30;28.40
30288;DHT22;17103;48.316;11.558;2023-06-14T10:10:19;26.30;28.50
30288;DHT22;17103;48.316;11.558;2023-06-14T10:12:46;26.40;28.50
30288;DHT22;17103;48.316;11.558;2023-06-14T10:15:19;26.50;28.40
30288;DHT22;17103;48.316;11.558;2023-06-14T10:17:50;26.50;28.20
30288;DHT22;17103;48.316;11.558;2023-06-14T10:23:07;26.60;28.00
30288;DHT22;17103;48.316;11.558;2023-06-14T10:25:34;26.60;28.00
30288;DHT22;17103;48.316;11.558;2023-06-14T10:28:19;26.70;28.20
30288;DHT22;17103;48.316;11.558;2023-06-14T10:31:17;26.70;28.20
30288;DHT22;17103;48.316;11.558;2023-06-14T10:33:55;26.80;28.40
30288;DHT22;17103;48.316;11.558;2023-06-14T10:36:28;26.80;28.50
30288;DHT22;17103;48.316;11.558;2023-06-14T10:41:29;26.90;28.40
30288;DHT22;17103;48.316;11.558;2023-06-14T10:46:49;27.00;28.40
30288;DHT22;17103;48.316;11.558;2023-06-14T10:49:18;27.00;28.30
30288;DHT22;17103;48.316;11.558;2023-06-14T10:51:46;27.10;28.20
30288;DHT22;17103;48.316;11.558;2023-06-14T10:54:16;27.10;28.30
30288;DHT22;17103;48.316;11.558;2023-06-14T10:56:50;27.20;28.20
30288;DHT22;17103;48.316;11.558;2023-06-14T10:59:17;27.20;28.00
30288;DHT22;17103;48.316;11.558;2023-06-14T11:04:53;27.30;27.80
30288;DHT22;17103;48.316;11.558;2023-06-14T11:12:27;27.50;27.80
30288;DHT22;17103;48.316;11.558;2023-06-14T11:14:53;27.60;27.70
30288;DHT22;17103;48.316;11.558;2023-06-14T11:17:19;27.60;27.60
30288;DHT22;17103;48.316;11.558;2023-06-14T11:19:45;27.60;27.70
30288;DHT22;17103;48.316;11.558;2023-06-14T11:22:12;27.70;27.90
30288;DHT22;17103;48.316;11.558;2023-06-14T11:24:37;27.70;27.60
30288;DHT22;17103;48.316;11.558;2023-06-14T11:27:03;27.70;27.60
30288;DHT22;17103;48.316;11.558;2023-06-14T11:29:29;27.70;27.50
30288;DHT22;17103;48.316;11.558;2023-06-14T11:31:55;27.70;27.30
30288;DHT22;17103;48.316;11.558;2023-06-14T11:34:21;27.70;27.30
30288;DHT22;17103;48.316;11.558;2023-06-14T11:36:47;27.80;27.30
30288;DHT22;17103;48.316;11.558;2023-06-14T11:39:13;27.80;27.40
30288;DHT22;17103;48.316;11.558;2023-06-14T11:41:44;27.80;27.20
30288;DHT22;17103;48.316;11.558;2023-06-14T11:44:10;27.90;27.00
30288;DHT22;17103;48.316;11.558;2023-06-14T11:46:37;27.90;27.40
30288;DHT22;17103;48.316;11.558;2023-06-14T11:49:12;28.00;27.10
30288;DHT22;17103;48.316;11.558;2023-06-14T11:51:42;28.10;27.20
30288;DHT22;17103;48.316;11.558;2023-06-14T11:54:08;28.10;27.30
30288;DHT22;17103;48.316;11.558;2023-06-14T11:56:34;28.20;27.50
30288;DHT22;17103;48.316;11.558;2023-06-14T11:59:02;28.30;27.20
30288;DHT22;17103;48.316;11.558;2023-06-14T12:01:30;28.40;27.10
30288;DHT22;17103;48.316;11.558;2023-06-14T12:03:57;28.40;27.10
30288;DHT22;17103;48.316;11.558;2023-06-14T12:06:27;28.50;26.90
30288;DHT22;17103;48.316;11.558;2023-06-14T12:08:59;28.60;26.90
30288;DHT22;17103;48.316;11.558;2023-06-14T12:11:32;28.70;26.90
30288;DHT22;17103;48.316;11.558;2023-06-14T12:13:57;28.70;26.30
30288;DHT22;17103;48.316;11.558;2023-06-14T12:16:30;28.80;26.90
30288;DHT22;17103;48.316;11.558;2023-06-14T12:19:00;28.90;26.60
30288;DHT22;17103;48.316;11.558;2023-06-14T12:21:26;29.00;26.90
30288;DHT22;17103;48.316;11.558;2023-06-14T12:23:53;29.00;26.80
30288;DHT22;17103;48.316;11.558;2023-06-14T12:26:19;29.10;26.70
30288;DHT22;17103;48.316;11.558;2023-06-14T12:28:46;29.10;26.60
30288;DHT22;17103;48.316;11.558;2023-06-14T12:31:13;29.20;26.60
30288;DHT22;17103;48.316;11.558;2023-06-14T12:33:40;29.30;27.00
30288;DHT22;17103;48.316;11.558;2023-06-14T12:36:32;29.30;26.60
30288;DHT22;17103;48.316;11.558;2023-06-14T12:38:59;29.40;26.50
30288;DHT22;17103;48.316;11.558;2023-06-14T12:41:24;29.50;27.00
30288;DHT22;17103;48.316;11.558;2023-06-14T12:43:52;29.60;26.50
30288;DHT22;17103;48.316;11.558;2023-06-14T12:46:17;29.70;26.60
30288;DHT22;17103;48.316;11.558;2023-06-14T12:48:43;29.70;26.30
30288;DHT22;17103;48.316;11.558;2023-06-14T12:51:09;29.80;26.10
30288;DHT22;17103;48.316;11.558;2023-06-14T12:53:35;29.80;25.70
30288;DHT22;17103;48.316;11.558;2023-06-14T12:56:00;29.90;25.80
30288;DHT22;17103;48.316;11.558;2023-06-14T12:58:26;29.90;25.60
30288;DHT22;17103;48.316;11.558;2023-06-14T13:00:52;30.00;25.50
30288;DHT22;17103;48.316;11.558;2023-06-14T13:03:18;30.10;25.80
30288;DHT22;17103;48.316;11.558;2023-06-14T13:05:44;30.10;25.00
30288;DHT22;17103;48.316;11.558;2023-06-14T13:08:10;30.20;25.30
30288;DHT22;17103;48.316;11.558;2023-06-14T13:10:35;30.30;24.60
30288;DHT22;17103;48.316;11.558;2023-06-14T13:13:01;30.40;24.90
30288;DHT22;17103;48.316;11.558;2023-06-14T13:15:27;30.50;25.00
30288;DHT22;17103;48.316;11.558;2023-06-14T13:17:53;30.50;25.00
30288;DHT22;17103;48.316;11.558;2023-06-14T13:20:19;30.60;25.40
30288;DHT22;17103;48.316;11.558;2023-06-14T13:22:45;30.80;25.40
30288;DHT22;17103;48.316;11.558;2023-06-14T13:25:10;30.80;25.40
30288;DHT22;17103;48.316;11.558;2023-06-14T13:27:36;30.90;25.50
30288;DHT22;17103;48.316;11.558;2023-06-14T13:30:03;31.00;25.00
30288;DHT22;17103;48.316;11.558;2023-06-14T13:32:31;31.10;25.00
30288;DHT22;17103;48.316;11.558;2023-06-14T13:34:56;31.20;25.30
30288;DHT22;17103;48.316;11.558;2023-06-14T13:37:22;31.30;25.00
30288;DHT22;17103;48.316;11.558;2023-06-14T13:39:48;31.30;24.30
30288;DHT22;17103;48.316;11.558;2023-06-14T13:42:14;31.40;24.40
30288;DHT22;17103;48.316;11.558;2023-06-14T13:44:40;31.50;24.80
30288;DHT22;17103;48.316;11.558;2023-06-14T13:47:06;31.50;25.00
30288;DHT22;17103;48.316;11.558;2023-06-14T13:49:31;31.60;25.00
30288;DHT22;17103;48.316;11.558;2023-06-14T13:51:57;31.60;25.10
30288;DHT22;17103;48.316;11.558;2023-06-14T13:54:23;31.70;24.90
30288;DHT22;17103;48.316;11.558;2023-06-14T13:56:48;31.80;25.10
30288;DHT22;17103;48.316;11.558;2023-06-14T13:59:14;31.90;24.90
30288;DHT22;17103;48.316;11.558;2023-06-14T14:01:41;32.00;24.40
30288;DHT22;17103;48.316;11.558;2023-06-14T14:04:06;32.10;24.70
30288;DHT22;17103;48.316;11.558;2023-06-14T14:06:32;32.10;24.50
30288;DHT22;17103;48.316;11.558;2023-06-14T14:08:57;32.30;24.60
30288;DHT22;17103;48.316;11.558;2023-06-14T14:11:23;32.30;24.30
30288;DHT22;17103;48.316;11.558;2023-06-14T14:13:49;32.40;24.40
30288;DHT22;17103;48.316;11.558;2023-06-14T14:16:15;32.50;23.30
30288;DHT22;17103;48.316;11.558;2023-06-14T14:18:41;32.50;23.40
30288;DHT22;17103;48.316;11.558;2023-06-14T14:21:06;32.60;23.70
30288;DHT22;17103;48.316;11.558;2023-06-14T14:23:32;32.60;23.70
30288;DHT22;17103;48.316;11.558;2023-06-14T14:25:58;32.70;23.50
30288;DHT22;17103;48.316;11.558;2023-06-14T14:28:26;32.70;23.70
30288;DHT22;17103;48.316;11.558;2023-06-14T14:30:52;32.80;23.70
30288;DHT22;17103;48.316;11.558;2023-06-14T14:33:19;32.80;23.50
30288;DHT22;17103;48.316;11.558;2023-06-14T14:35:45;32.90;23.30
30288;DHT22;17103;48.316;11.558;2023-06-14T14:38:14;33.00;23.20
30288;DHT22;17103;48.316;11.558;2023-06-14T14:40:41;33.00;23.30
30288;DHT22;17103;48.316;11.558;2023-06-14T14:43:07;32.90;23.10
30288;DHT22;17103;48.316;11.558;2023-06-14T14:45:32;32.90;23.60
30288;DHT22;17103;48.316;11.558;2023-06-14T14:47:59;32.90;23.30
30288;DHT22;17103;48.316;11.558;2023-06-14T14:50:25;33.00;23.30
30288;DHT22;17103;48.316;11.558;2023-06-14T14:52:51;33.00;23.40
30288;DHT22;17103;48.316;11.558;2023-06-14T14:55:17;33.10;23.10
30288;DHT22;17103;48.316;11.558;2023-06-14T14:57:43;33.10;23.20
30288;DHT22;17103;48.316;11.558;2023-06-14T15:00:09;33.20;23.60
30288;DHT22;17103;48.316;11.558;2023-06-14T15:02:35;33.20;23.40
30288;DHT22;17103;48.316;11.558;2023-06-14T15:05:01;33.30;23.40
30288;DHT22;17103;48.316;11.558;2023-06-14T15:07:28;33.40;23.40
30288;DHT22;17103;48.316;11.558;2023-06-14T15:09:54;33.40;23.30
30288;DHT22;17103;48.316;11.558;2023-06-14T15:12:20;33.50;23.00
30288;DHT22;17103;48.316;11.558;2023-06-14T15:14:51;33.60;23.10
30288;DHT22;17103;48.316;11.558;2023-06-14T15:17:18;33.60;22.90
30288;DHT22;17103;48.316;11.558;2023-06-14T15:19:47;33.70;22.90
30288;DHT22;17103;48.316;11.558;2023-06-14T15:22:14;33.80;22.80
30288;DHT22;17103;48.316;11.558;2023-06-14T15:24:41;33.90;23.30
30288;DHT22;17103;48.316;11.558;2023-06-14T15:27:06;33.90;23.40
30288;DHT22;17103;48.316;11.558;2023-06-14T15:29:33;34.00;23.30
30288;DHT22;17103;48.316;11.558;2023-06-14T15:32:01;34.10;23.20
30288;DHT22;17103;48.316;11.558;2023-06-14T15:34:26;34.10;23.00
30288;DHT22;17103;48.316;11.558;2023-06-14T15:36:52;34.20;23.50